Time;durP1;ratioP1;P1;durP2;ratioP2;P2;SDS_P1;SDS_P2;PMS_P1;PMS_P2;Temp;Humidity;BMP_temperature;BMP_pressure;BME280_temperature;BME280_humidity;BME280_pressure;Samples;Min_cycle;Max_cycle;Signal;HPM_P1;HPM_P2
2023/06/02 00:01:08;;;;;;;17.88;3.30;;;10.60;99.90;;;;;;5033138;28;20497;-57
2023/06/02 00:03:36;;;;;;;15.95;3.17;;;10.60;99.90;;;;;;5018158;28;20453;-58
2023/06/02 00:06:05;;;;;;;19.77;3.65;;;10.50;99.90;;;;;;5036135;28;20401;-58
2023/06/02 00:08:32;;;;;;;17.10;3.33;;;10.50;99.90;;;;;;5039889;28;20378;-57
2023/06/02 00:10:59;;;;;;;14.07;2.92;;;10.50;99.90;;;;;;5023179;28;20045;-58
2023/06/02 00:13:25;;;;;;;17.67;3.65;;;10.50;99.90;;;;;;5037397;28;20048;-57
2023/06/02 00:15:51;;;;;;;19.45;2.95;;;10.50;99.90;;;;;;5033975;28;20083;-58
2023/06/02 00:18:17;;;;;;;12.70;2.53;;;10.40;99.90;;;;;;5033349;28;20082;-59
2023/06/02 00:20:44;;;;;;;22.73;3.55;;;10.50;99.90;;;;;;5028675;28;20472;-58
2023/06/02 00:23:10;;;;;;;21.98;3.58;;;10.50;99.90;;;;;;5029974;28;20488;-58
2023/06/02 00:25:36;;;;;;;14.95;3.10;;;10.50;99.90;;;;;;5032004;28;20274;-58
2023/06/02 00:28:03;;;;;;;12.57;2.75;;;10.50;99.90;;;;;;5035504;28;20059;-58
2023/06/02 00:30:30;;;;;;;20.60;3.13;;;10.50;99.90;;;;;;5030386;28;20190;-57
2023/06/02 00:32:56;;;;;;;15.73;3.55;;;10.50;99.90;;;;;;5029025;28;20131;-58
2023/06/02 00:35:22;;;;;;;20.40;3.63;;;10.40;99.90;;;;;;5029505;28;20412;-57
2023/06/02 00:37:48;;;;;;;18.20;3.60;;;10.40;99.90;;;;;;5034769;28;20090;-57
2023/06/02 00:40:14;;;;;;;22.73;3.63;;;10.50;99.90;;;;;;5031048;28;20486;-57
2023/06/02 00:42:40;;;;;;;16.25;3.47;;;10.50;99.90;;;;;;5032911;28;20080;-57
2023/06/02 00:45:06;;;;;;;14.93;3.03;;;10.40;99.90;;;;;;5040562;28;20476;-58
2023/06/02 00:47:32;;;;;;;25.10;3.60;;;10.40;99.90;;;;;;5016545;28;20080;-58
2023/06/02 00:49:58;;;;;;;22.58;3.65;;;10.40;99.90;;;;;;5037646;28;20124;-58
2023/06/02 00:52:25;;;;;;;20.73;3.53;;;10.40;99.90;;;;;;5037628;28;20123;-59
2023/06/02 00:54:51;;;;;;;25.58;3.67;;;10.40;99.90;;;;;;5033774;28;20044;-58
2023/06/02 00:57:17;;;;;;;15.82;3.65;;;10.40;99.90;;;;;;5031434;28;20253;-58
2023/06/02 00:59:47;;;;;;;15.48;3.78;;;10.40;99.90;;;;;;5033800;28;20777;-57
2023/06/02 01:02:13;;;;;;;15.25;3.15;;;10.30;99.90;;;;;;5025758;28;20069;-58
2023/06/02 01:04:40;;;;;;;11.93;2.90;;;10.30;99.90;;;;;;5027867;28;20045;-58
2023/06/02 01:07:07;;;;;;;13.32;2.88;;;10.30;99.90;;;;;;5028565;28;20508;-57
2023/06/02 01:09:34;;;;;;;17.55;2.78;;;10.30;99.90;;;;;;5024952;28;20041;-58
2023/06/02 01:12:01;;;;;;;18.45;2.97;;;10.30;99.90;;;;;;5021653;28;20370;-58
2023/06/02 01:14:27;;;;;;;22.13;3.85;;;10.20;99.90;;;;;;5036374;28;20180;-58
2023/06/02 01:16:53;;;;;;;17.17;3.00;;;10.20;99.90;;;;;;5040602;28;20050;-58
2023/06/02 01:19:25;;;;;;;17.20;3.33;;;10.20;99.90;;;;;;5056233;28;20053;-58
2023/06/02 01:21:59;;;;;;;15.68;2.75;;;10.20;99.90;;;;;;5036559;28;20040;-57
2023/06/02 01:24:44;;;;;;;16.50;3.15;;;10.20;99.90;;;;;;5034669;28;20050;-56
2023/06/02 01:27:15;;;;;;;16.88;3.28;;;10.20;99.90;;;;;;5034337;28;20071;-58
2023/06/02 01:29:42;;;;;;;17.35;3.92;;;10.20;99.90;;;;;;5036287;28;20045;-58
2023/06/02 01:32:20;;;;;;;14.52;3.47;;;10.20;99.90;;;;;;5035131;28;20258;-58
2023/06/02 01:35:08;;;;;;;18.27;3.30;;;10.20;99.90;;;;;;5038377;28;20049;-57
2023/06/02 01:37:37;;;;;;;18.65;3.42;;;10.20;99.90;;;;;;5038440;28;20053;-58
2023/06/02 01:40:05;;;;;;;17.55;2.90;;;10.10;99.90;;;;;;5031288;28;20078;-57
2023/06/02 01:42:33;;;;;;;19.05;3.70;;;10.10;99.90;;;;;;5035941;28;20477;-58
2023/06/02 01:45:01;;;;;;;19.23;3.30;;;10.10;99.90;;;;;;5035406;28;20044;-58
2023/06/02 01:47:27;;;;;;;25.30;3.67;;;10.10;99.90;;;;;;5035557;28;20047;-57
2023/06/02 01:49:53;;;;;;;11.93;2.97;;;10.10;99.90;;;;;;5039246;28;20043;-57
2023/06/02 01:52:19;;;;;;;16.35;3.40;;;10.10;99.90;;;;;;5035796;28;20072;-58
2023/06/02 01:54:46;;;;;;;18.35;3.25;;;10.10;99.90;;;;;;5031850;28;20040;-58
2023/06/02 01:57:12;;;;;;;17.45;3.55;;;10.10;99.90;;;;;;5035641;28;20041;-56
2023/06/02 01:59:37;;;;;;;16.35;3.05;;;10.10;99.90;;;;;;5035343;28;20497;-57
2023/06/02 02:02:03;;;;;;;24.95;3.70;;;10.10;99.90;;;;;;5032699;28;20132;-57
2023/06/02 02:04:29;;;;;;;11.65;2.97;;;10.20;99.90;;;;;;5033384;28;20155;-58
2023/06/02 02:06:55;;;;;;;16.58;3.47;;;10.20;99.90;;;;;;5051318;28;20052;-59
2023/06/02 02:09:21;;;;;;;25.90;3.70;;;10.20;99.90;;;;;;5033627;28;20463;-58
2023/06/02 02:11:47;;;;;;;21.70;3.15;;;10.20;99.90;;;;;;5036501;28;20043;-57
2023/06/02 02:14:14;;;;;;;22.05;3.25;;;10.20;99.90;;;;;;5032705;28;20052;-57
2023/06/02 02:16:44;;;;;;;13.95;2.70;;;10.20;99.90;;;;;;5007695;28;20068;-59
2023/06/02 02:19:12;;;;;;;22.30;3.63;;;10.20;99.90;;;;;;5036117;28;20044;-58
2023/06/02 02:21:38;;;;;;;16.77;3.47;;;10.20;99.90;;;;;;5025260;28;20190;-58
2023/06/02 02:24:05;;;;;;;21.77;3.60;;;10.20;99.90;;;;;;5022973;28;20041;-58
2023/06/02 02:26:31;;;;;;;21.67;2.97;;;10.20;99.90;;;;;;5037338;28;20045;-58
2023/06/02 02:28:56;;;;;;;23.67;3.88;;;10.20;99.90;;;;;;5039375;28;20037;-57
2023/06/02 02:31:22;;;;;;;16.40;3.78;;;10.20;99.90;;;;;;5034826;28;20045;-58
2023/06/02 02:33:48;;;;;;;17.15;3.40;;;10.20;99.90;;;;;;5036439;28;20033;-58
2023/06/02 02:36:16;;;;;;;19.45;3.72;;;10.20;99.90;;;;;;5034186;28;20505;-58
2023/06/02 02:38:42;;;;;;;19.83;3.72;;;10.10;99.90;;;;;;5035056;28;20037;-57
2023/06/02 02:41:08;;;;;;;16.02;3.13;;;10.10;99.90;;;;;;5038749;28;20154;-57
2023/06/02 02:43:33;;;;;;;15.90;3.95;;;10.10;99.90;;;;;;5033495;28;20049;-58
2023/06/02 02:45:59;;;;;;;16.17;3.55;;;10.10;99.90;;;;;;5039669;28;20037;-57
2023/06/02 02:48:25;;;;;;;20.90;3.53;;;10.10;99.90;;;;;;5038599;28;20405;-58
2023/06/02 02:50:51;;;;;;;19.80;3.33;;;10.20;99.90;;;;;;5035023;28;20142;-58
2023/06/02 02:53:18;;;;;;;19.13;3.58;;;10.20;99.90;;;;;;5035754;28;20048;-58
2023/06/02 02:55:44;;;;;;;17.83;3.10;;;10.20;99.90;;;;;;5041954;28;20048;-57
2023/06/02 02:58:10;;;;;;;22.48;4.20;;;10.20;99.90;;;;;;5034415;28;20558;-58
2023/06/02 03:00:36;;;;;;;21.55;3.63;;;10.20;99.90;;;;;;5030424;28;20044;-57
2023/06/02 03:03:02;;;;;;;23.15;3.50;;;10.30;99.90;;;;;;5031512;28;20040;-58
2023/06/02 03:05:28;;;;;;;18.83;3.30;;;10.30;99.90;;;;;;5032825;28;20048;-58
2023/06/02 03:07:54;;;;;;;25.42;3.95;;;10.30;99.90;;;;;;5037758;28;20401;-58
2023/06/02 03:10:20;;;;;;;17.15;3.30;;;10.30;99.90;;;;;;5035087;28;20678;-55
2023/06/02 03:12:46;;;;;;;21.25;4.47;;;10.30;99.90;;;;;;5036522;28;20502;-57
2023/06/02 03:15:11;;;;;;;23.38;4.05;;;10.30;99.90;;;;;;5032704;28;20481;-58
2023/06/02 03:17:37;;;;;;;17.83;3.83;;;10.30;99.90;;;;;;5034193;28;20691;-58
2023/06/02 03:20:10;;;;;;;22.00;4.00;;;10.40;99.90;;;;;;5039477;28;20044;-57
2023/06/02 03:22:36;;;;;;;13.52;2.92;;;10.40;99.90;;;;;;5036309;28;20048;-57
2023/06/02 03:25:03;;;;;;;29.85;4.10;;;10.40;99.90;;;;;;5026896;28;20051;-58
2023/06/02 03:27:28;;;;;;;20.50;3.38;;;10.40;99.90;;;;;;5032944;28;20080;-58
2023/06/02 03:29:55;;;;;;;27.13;4.10;;;10.40;99.90;;;;;;5034179;28;20124;-57
2023/06/02 03:32:20;;;;;;;19.15;3.10;;;10.50;99.90;;;;;;5026726;28;20098;-57
2023/06/02 03:34:46;;;;;;;15.98;3.33;;;10.50;99.90;;;;;;5036800;28;20452;-58
2023/06/02 03:37:12;;;;;;;22.85;4.75;;;10.50;99.90;;;;;;5035236;28;20041;-57
2023/06/02 03:39:38;;;;;;;17.15;3.70;;;10.50;99.90;;;;;;5035551;28;20051;-58
2023/06/02 03:42:04;;;;;;;18.27;3.67;;;10.60;99.90;;;;;;5032242;28;20083;-58
2023/06/02 03:44:30;;;;;;;17.55;3.42;;;10.60;99.90;;;;;;5033897;28;20716;-58
2023/06/02 03:46:56;;;;;;;21.38;3.92;;;10.60;99.90;;;;;;5035872;28;20053;-58
2023/06/02 03:49:26;;;;;;;17.33;3.70;;;10.60;99.90;;;;;;5032787;28;20041;-58
2023/06/02 03:51:53;;;;;;;16.55;3.50;;;10.60;99.90;;;;;;5037683;28;20135;-58
2023/06/02 03:54:18;;;;;;;20.20;4.55;;;10.60;99.90;;;;;;5039572;28;20047;-59
2023/06/02 03:56:44;;;;;;;21.90;3.92;;;10.60;99.90;;;;;;5036044;28;20045;-58
2023/06/02 03:59:10;;;;;;;18.92;4.07;;;10.70;99.90;;;;;;5043562;28;20045;-57
2023/06/02 04:01:35;;;;;;;20.58;3.90;;;10.70;99.90;;;;;;5040706;28;20144;-57
2023/06/02 04:04:01;;;;;;;19.50;3.40;;;10.70;99.90;;;;;;5042517;28;20041;-57
2023/06/02 04:06:28;;;;;;;18.60;4.40;;;10.70;99.90;;;;;;5017711;28;20076;-58
2023/06/02 04:08:54;;;;;;;13.50;3.20;;;10.70;99.90;;;;;;5039116;28;20116;-58
2023/06/02 04:11:22;;;;;;;20.67;3.55;;;10.80;99.90;;;;;;5035527;28;20491;-58
2023/06/02 04:13:49;;;;;;;20.98;3.60;;;10.70;99.90;;;;;;5044036;28;20283;-59
2023/06/02 04:16:15;;;;;;;20.85;3.97;;;10.80;99.90;;;;;;5034598;28;20060;-58
2023/06/02 04:18:41;;;;;;;19.27;3.50;;;10.80;99.90;;;;;;5051153;28;20640;-58
2023/06/02 04:21:07;;;;;;;21.85;3.72;;;10.80;99.90;;;;;;5043897;28;20087;-57
2023/06/02 04:23:32;;;;;;;16.15;3.80;;;10.80;99.90;;;;;;5047938;28;20037;-58
2023/06/02 04:25:58;;;;;;;19.10;3.65;;;10.80;99.90;;;;;;5049480;28;20396;-57
2023/06/02 04:28:25;;;;;;;27.33;4.57;;;10.90;99.90;;;;;;5052748;28;20029;-58
2023/06/02 04:30:55;;;;;;;15.68;3.90;;;10.90;99.90;;;;;;5041383;28;20044;-57
2023/06/02 04:33:22;;;;;;;19.88;3.80;;;10.90;99.90;;;;;;5041626;28;20092;-58
2023/06/02 04:35:48;;;;;;;17.77;4.20;;;11.00;99.90;;;;;;5023433;28;20179;-57
2023/06/02 04:38:14;;;;;;;13.18;3.78;;;11.00;99.90;;;;;;5037052;28;20124;-57
2023/06/02 04:40:41;;;;;;;18.45;3.65;;;11.00;99.90;;;;;;5036009;28;20124;-57
2023/06/02 04:43:07;;;;;;;25.33;4.28;;;11.00;99.90;;;;;;5038455;28;20039;-60
2023/06/02 04:45:33;;;;;;;16.52;4.10;;;11.00;99.90;;;;;;5043794;28;20041;-58
2023/06/02 04:48:00;;;;;;;23.58;4.05;;;11.00;99.90;;;;;;5039592;28;20041;-58
2023/06/02 04:50:27;;;;;;;21.80;4.45;;;11.10;99.90;;;;;;5014305;28;20397;-59
2023/06/02 04:52:53;;;;;;;25.83;4.78;;;11.10;99.90;;;;;;5039722;28;20721;-59
2023/06/02 04:55:19;;;;;;;21.80;4.47;;;11.10;99.90;;;;;;5047115;28;20182;-59
2023/06/02 04:57:45;;;;;;;24.67;4.30;;;11.20;99.90;;;;;;5036642;28;20105;-60
2023/06/02 05:00:12;;;;;;;21.10;5.25;;;11.20;99.90;;;;;;5033097;28;20032;-60
2023/06/02 05:02:38;;;;;;;20.35;4.32;;;11.20;99.90;;;;;;5039583;28;20042;-59
2023/06/02 05:05:05;;;;;;;22.15;4.50;;;11.30;99.90;;;;;;5052130;28;20048;-59
2023/06/02 05:07:31;;;;;;;22.52;4.18;;;11.30;99.90;;;;;;5035624;28;20049;-60
2023/06/02 05:09:57;;;;;;;20.80;4.82;;;11.30;99.90;;;;;;5044638;28;20048;-59
2023/06/02 05:12:25;;;;;;;25.70;4.70;;;11.40;99.90;;;;;;5040472;28;20052;-59
2023/06/02 05:14:51;;;;;;;21.08;4.32;;;11.40;99.90;;;;;;5030993;28;20060;-59
2023/06/02 05:17:23;;;;;;;28.60;5.72;;;11.40;99.90;;;;;;5043708;28;20418;-59
2023/06/02 05:19:49;;;;;;;19.05;3.60;;;11.40;99.90;;;;;;5041749;28;20048;-59
2023/06/02 05:22:15;;;;;;;26.52;4.63;;;11.50;99.90;;;;;;5040694;28;20163;-60
2023/06/02 05:24:41;;;;;;;25.00;4.72;;;11.50;99.90;;;;;;5045951;28;20037;-59
2023/06/02 05:27:07;;;;;;;24.80;4.75;;;11.60;99.90;;;;;;5028981;28;20049;-59
2023/06/02 05:29:33;;;;;;;35.85;5.22;;;11.60;99.90;;;;;;5042137;28;20044;-60
2023/06/02 05:31:59;;;;;;;26.48;4.50;;;11.60;99.90;;;;;;5045549;28;20041;-60
2023/06/02 05:34:25;;;;;;;32.42;5.53;;;11.70;99.90;;;;;;5009911;28;20668;-59
2023/06/02 05:36:50;;;;;;;21.42;4.90;;;11.70;99.90;;;;;;5036754;28;20082;-59
2023/06/02 05:39:16;;;;;;;26.50;4.97;;;11.80;99.90;;;;;;5038993;28;20116;-59
2023/06/02 05:41:43;;;;;;;23.67;5.18;;;11.80;99.90;;;;;;5044294;28;20388;-60
2023/06/02 05:44:08;;;;;;;24.70;4.75;;;11.90;99.90;;;;;;5046703;28;20048;-59
2023/06/02 05:46:34;;;;;;;28.42;5.57;;;12.00;99.90;;;;;;5041797;28;20485;-60
2023/06/02 05:49:00;;;;;;;29.00;5.60;;;12.00;99.90;;;;;;5039089;28;20128;-60
2023/06/02 05:51:25;;;;;;;21.90;4.82;;;12.10;99.90;;;;;;5025110;28;20043;-59
2023/06/02 05:53:51;;;;;;;32.60;5.35;;;12.20;99.90;;;;;;5020120;28;20064;-59
2023/06/02 05:56:17;;;;;;;27.98;5.43;;;12.20;99.90;;;;;;5051606;28;20381;-59
2023/06/02 05:58:43;;;;;;;23.23;5.10;;;12.30;99.90;;;;;;5042805;28;20060;-60
2023/06/02 06:01:09;;;;;;;31.42;5.93;;;12.40;99.90;;;;;;5040198;28;20398;-59
2023/06/02 06:03:37;;;;;;;26.42;4.93;;;12.50;99.90;;;;;;5027214;28;20485;-60
2023/06/02 06:06:04;;;;;;;33.60;5.75;;;12.50;99.90;;;;;;5038004;28;20102;-59
2023/06/02 06:08:29;;;;;;;24.80;4.88;;;12.50;99.90;;;;;;5034425;28;20033;-71
2023/06/02 06:10:55;;;;;;;28.25;5.38;;;12.60;99.90;;;;;;5020930;28;20140;-70
2023/06/02 06:13:21;;;;;;;30.17;5.80;;;12.70;99.90;;;;;;5023658;28;20095;-70
2023/06/02 06:15:47;;;;;;;28.35;5.30;;;12.70;99.90;;;;;;5006048;28;20049;-70
2023/06/02 06:18:13;;;;;;;26.45;5.60;;;12.80;99.90;;;;;;5011932;28;20516;-70
2023/06/02 06:20:43;;;;;;;35.55;5.72;;;12.90;99.90;;;;;;5034555;28;20073;-69
2023/06/02 06:23:10;;;;;;;23.85;5.30;;;12.90;99.90;;;;;;5041970;28;20400;-70
2023/06/02 06:25:36;;;;;;;30.85;5.55;;;13.00;99.90;;;;;;5038015;28;20733;-69
2023/06/02 06:28:02;;;;;;;20.58;4.95;;;13.00;99.90;;;;;;5022114;28;20084;-70
2023/06/02 06:30:28;;;;;;;27.30;4.50;;;13.10;99.90;;;;;;4993982;28;20450;-70
2023/06/02 06:32:54;;;;;;;28.15;5.72;;;13.20;99.90;;;;;;5014182;28;20159;-70
2023/06/02 06:35:20;;;;;;;23.55;5.55;;;13.30;99.90;;;;;;5005507;28;20056;-70
2023/06/02 06:37:45;;;;;;;23.23;4.95;;;13.30;99.90;;;;;;5004959;28;20048;-70
2023/06/02 06:40:11;;;;;;;20.20;4.53;;;13.40;99.90;;;;;;5002653;28;20042;-70
2023/06/02 06:42:37;;;;;;;22.52;4.70;;;13.50;99.90;;;;;;5020010;28;20416;-69
2023/06/02 06:45:03;;;;;;;32.70;4.80;;;13.50;99.90;;;;;;5005851;28;20048;-69
2023/06/02 06:47:29;;;;;;;23.73;4.75;;;13.60;99.90;;;;;;5018568;28;20053;-70
2023/06/02 06:49:55;;;;;;;26.63;4.68;;;13.60;99.90;;;;;;5010564;28;20076;-70
2023/06/02 06:52:20;;;;;;;21.50;4.93;;;13.70;99.90;;;;;;5028352;28;20041;-70
2023/06/02 06:54:46;;;;;;;27.08;5.25;;;13.80;99.90;;;;;;5015365;28;20044;-70
2023/06/02 06:57:12;;;;;;;22.77;4.50;;;13.90;99.90;;;;;;5003227;28;20527;-70
2023/06/02 06:59:42;;;;;;;26.17;4.70;;;13.90;99.90;;;;;;5025832;28;20505;-70
2023/06/02 07:02:08;;;;;;;19.25;4.40;;;14.00;99.90;;;;;;4994169;28;20804;-71
2023/06/02 07:04:34;;;;;;;26.35;4.15;;;14.00;99.90;;;;;;5009417;28;20072;-69
2023/06/02 07:07:00;;;;;;;19.83;4.68;;;14.10;99.90;;;;;;5032953;28;20395;-70
2023/06/02 07:09:25;;;;;;;23.17;4.22;;;14.10;99.90;;;;;;5012862;28;20052;-71
2023/06/02 07:11:51;;;;;;;26.65;4.65;;;14.10;99.90;;;;;;4996986;28;20041;-71
2023/06/02 07:14:17;;;;;;;21.95;4.72;;;14.10;99.90;;;;;;5031261;28;20429;-70
2023/06/02 07:16:46;;;;;;;23.23;4.57;;;14.20;99.90;;;;;;5017561;28;20049;-71
2023/06/02 07:19:12;;;;;;;17.77;3.90;;;14.30;99.90;;;;;;5033069;28;20512;-70
2023/06/02 07:21:38;;;;;;;20.05;3.40;;;14.50;99.90;;;;;;5035577;28;20493;-71
2023/06/02 07:24:04;;;;;;;17.73;3.30;;;14.70;99.90;;;;;;5021529;28;20079;-71
2023/06/02 07:26:30;;;;;;;18.27;3.53;;;14.80;99.90;;;;;;5035301;28;20064;-70
2023/06/02 07:28:56;;;;;;;19.70;3.78;;;14.80;99.90;;;;;;5022800;28;20114;-70
2023/06/02 07:31:22;;;;;;;18.20;3.45;;;14.80;99.90;;;;;;5020904;28;20501;-70
2023/06/02 07:33:48;;;;;;;12.73;2.90;;;14.80;99.90;;;;;;5016573;28;20047;-70
2023/06/02 07:36:14;;;;;;;14.48;3.20;;;14.80;99.90;;;;;;5001634;28;20045;-70
2023/06/02 07:38:40;;;;;;;16.35;3.33;;;14.80;99.90;;;;;;5018079;28;20424;-70
2023/06/02 07:41:06;;;;;;;17.58;2.85;;;14.80;99.90;;;;;;5035888;28;20508;-71
2023/06/02 07:43:32;;;;;;;17.48;2.95;;;14.90;99.90;;;;;;5031059;28;20048;-70
2023/06/02 07:45:58;;;;;;;11.90;2.58;;;15.20;99.90;;;;;;5019721;28;20124;-71
2023/06/02 07:48:24;;;;;;;10.50;2.58;;;15.40;99.90;;;;;;5036930;28;20055;-71
2023/06/02 07:50:49;;;;;;;13.73;2.58;;;15.50;99.90;;;;;;5010110;28;20057;-71
2023/06/02 07:53:15;;;;;;;11.88;2.45;;;15.70;99.90;;;;;;4995171;28;20328;-71
2023/06/02 07:55:41;;;;;;;16.33;3.00;;;15.70;99.90;;;;;;4999097;28;20200;-71
2023/06/02 07:58:08;;;;;;;7.25;2.15;;;15.80;99.90;;;;;;5018381;28;20391;-71
2023/06/02 08:00:34;;;;;;;15.18;2.40;;;15.80;99.90;;;;;;5028881;28;20037;-71
2023/06/02 08:03:00;;;;;;;9.73;2.28;;;15.90;99.90;;;;;;5000832;28;20048;-71
2023/06/02 08:05:26;;;;;;;13.75;2.20;;;16.10;99.90;;;;;;4995616;28;20049;-71
2023/06/02 08:07:52;;;;;;;8.55;1.73;;;16.20;99.90;;;;;;5013701;28;20098;-72
2023/06/02 08:10:18;;;;;;;8.25;2.20;;;16.30;99.90;;;;;;4994245;28;20681;-71
2023/06/02 08:12:44;;;;;;;12.55;2.42;;;16.30;99.90;;;;;;5024867;28;20045;-71
2023/06/02 08:15:10;;;;;;;10.25;2.22;;;16.30;99.90;;;;;;5017184;28;20052;-71
2023/06/02 08:17:36;;;;;;;10.82;2.67;;;16.40;99.90;;;;;;5016501;28;20316;-71
2023/06/02 08:20:03;;;;;;;5.30;1.65;;;16.50;99.90;;;;;;5001746;28;20482;-71
2023/06/02 08:22:32;;;;;;;8.82;1.95;;;16.50;99.90;;;;;;5035716;28;20041;-71
2023/06/02 08:24:58;;;;;;;12.40;2.65;;;16.70;99.90;;;;;;5033612;28;20049;-72
2023/06/02 08:27:24;;;;;;;8.52;1.77;;;16.80;99.90;;;;;;5009794;28;20574;-71
2023/06/02 08:29:51;;;;;;;10.07;1.77;;;16.90;99.90;;;;;;5026329;28;20663;-71
2023/06/02 08:32:22;;;;;;;11.10;2.10;;;17.00;99.90;;;;;;5033362;28;20431;-72
2023/06/02 08:34:56;;;;;;;7.00;1.58;;;17.10;99.90;;;;;;5013147;28;20251;-71
2023/06/02 08:37:22;;;;;;;5.45;1.83;;;17.20;99.90;;;;;;5032460;28;20050;-72
2023/06/02 08:39:50;;;;;;;5.63;1.50;;;17.30;99.90;;;;;;5035697;28;20048;-71
2023/06/02 08:42:16;;;;;;;5.15;1.40;;;17.40;99.90;;;;;;5025990;28;20067;-71
2023/06/02 08:44:43;;;;;;;14.23;2.30;;;17.50;99.90;;;;;;5043496;28;20048;-72
2023/06/02 08:47:11;;;;;;;13.85;1.80;;;17.50;99.90;;;;;;5005067;28;20049;-72
2023/06/02 08:49:43;;;;;;;6.90;1.60;;;17.60;99.90;;;;;;5040090;28;20476;-72
2023/06/02 08:52:21;;;;;;;8.00;1.70;;;17.70;99.90;;;;;;5027979;28;20056;-74
2023/06/02 08:54:48;;;;;;;8.25;2.13;;;17.80;99.50;;;;;;5029543;28;20044;-72
2023/06/02 08:57:16;;;;;;;7.53;1.80;;;17.80;99.20;;;;;;5029186;28;20037;-73
2023/06/02 08:59:44;;;;;;;4.00;1.42;;;17.90;99.30;;;;;;5028911;28;20041;-71
2023/06/02 09:02:10;;;;;;;5.75;1.70;;;17.90;99.10;;;;;;5022329;28;20071;-71
2023/06/02 09:04:36;;;;;;;4.65;1.30;;;18.00;99.10;;;;;;5028929;28;20401;-71
2023/06/02 09:07:20;;;;;;;8.25;1.67;;;18.00;98.90;;;;;;5026227;28;20404;-72
2023/06/02 09:09:48;;;;;;;8.90;1.50;;;18.10;98.80;;;;;;5046602;28;20037;-72
2023/06/02 09:12:16;;;;;;;5.47;1.65;;;18.10;98.50;;;;;;5028189;28;20048;-72
2023/06/02 09:14:42;;;;;;;4.03;1.48;;;18.20;98.10;;;;;;5031082;28;20084;-72
2023/06/02 09:17:25;;;;;;;8.15;2.00;;;18.20;97.80;;;;;;5031649;28;20481;-72
2023/06/02 09:19:53;;;;;;;6.13;1.70;;;18.30;97.90;;;;;;5040692;28;20370;-71
2023/06/02 09:22:19;;;;;;;12.20;1.60;;;18.40;98.10;;;;;;5015107;28;20067;-72
2023/06/02 09:24:45;;;;;;;9.68;1.80;;;18.50;97.50;;;;;;5036516;28;20128;-72
2023/06/02 09:27:15;;;;;;;5.05;1.42;;;18.50;97.00;;;;;;5035358;28;21506;-71
2023/06/02 09:29:42;;;;;;;8.75;1.50;;;18.60;97.00;;;;;;5040179;28;20056;-71
2023/06/02 09:32:16;;;;;;;5.22;1.45;;;18.60;96.30;;;;;;5040545;28;20370;-71
2023/06/02 09:34:43;;;;;;;4.85;1.30;;;18.60;95.20;;;;;;5038364;28;20500;-71
2023/06/02 09:37:17;;;;;;;8.25;1.40;;;18.60;94.80;;;;;;5024492;28;20136;-71
2023/06/02 09:39:52;;;;;;;7.63;1.55;;;18.60;94.40;;;;;;5024853;28;20053;-71
2023/06/02 09:42:19;;;;;;;6.32;2.05;;;18.70;94.00;;;;;;5024168;28;20075;-72
2023/06/02 09:45:08;;;;;;;8.35;1.80;;;18.70;93.20;;;;;;5004044;28;20053;-72
2023/06/02 09:47:40;;;;;;;10.07;1.70;;;18.80;93.40;;;;;;5022638;28;20033;-71
2023/06/02 09:50:07;;;;;;;5.82;1.70;;;18.90;92.30;;;;;;5040963;28;20110;-72
2023/06/02 09:52:33;;;;;;;5.20;1.50;;;18.90;92.00;;;;;;5023892;28;20042;-72
2023/06/02 09:54:59;;;;;;;2.47;1.25;;;19.00;91.90;;;;;;5007359;28;20396;-72
2023/06/02 09:57:25;;;;;;;6.10;1.20;;;19.10;91.50;;;;;;5008727;28;20036;-73
2023/06/02 09:59:52;;;;;;;5.50;1.20;;;19.20;91.10;;;;;;5044696;28;20119;-73
2023/06/02 10:02:18;;;;;;;6.07;1.40;;;19.40;89.70;;;;;;5039093;28;20036;-72
2023/06/02 10:04:47;;;;;;;7.82;1.30;;;19.40;85.80;;;;;;5012437;28;20041;-72
2023/06/02 10:07:25;;;;;;;3.58;1.20;;;19.50;84.20;;;;;;4995055;28;20182;-72
2023/06/02 10:10:38;;;;;;;1.63;1.00;;;19.70;84.70;;;;;;5028045;28;20466;-72
2023/06/02 10:13:22;;;;;;;3.17;1.15;;;19.70;74.90;;;;;;5038608;28;20044;-73
2023/06/02 10:16:08;;;;;;;7.28;1.20;;;19.70;74.80;;;;;;5034418;28;20072;-72
2023/06/02 10:18:55;;;;;;;2.10;0.90;;;19.60;70.50;;;;;;5029466;28;20056;-73
2023/06/02 10:21:28;;;;;;;3.40;1.30;;;19.70;70.00;;;;;;5047598;28;21580;-75
2023/06/02 10:24:13;;;;;;;1.67;0.93;;;19.70;68.70;;;;;;5042552;28;20418;-72
2023/06/02 10:27:11;;;;;;;2.30;0.80;;;19.80;68.40;;;;;;5042199;28;20041;-73
2023/06/02 10:29:38;;;;;;;4.20;1.30;;;19.90;68.70;;;;;;5040257;28;20040;-72
2023/06/02 10:32:24;;;;;;;4.10;1.20;;;20.10;68.60;;;;;;5028992;28;20083;-73
2023/06/02 10:35:00;;;;;;;4.68;1.20;;;20.10;67.10;;;;;;5039046;28;20047;-73
2023/06/02 10:37:26;;;;;;;2.95;1.00;;;20.10;69.10;;;;;;5022062;28;20466;-73
2023/06/02 10:39:54;;;;;;;7.47;1.20;;;20.20;70.30;;;;;;5033584;28;20120;-73
2023/06/02 10:42:25;;;;;;;6.93;1.45;;;20.20;70.20;;;;;;5032805;28;20037;-73
2023/06/02 10:44:54;;;;;;;3.80;1.40;;;20.30;71.00;;;;;;5039060;28;20135;-71
2023/06/02 10:47:20;;;;;;;2.50;1.40;;;20.40;72.00;;;;;;5023586;28;20044;-73
2023/06/02 10:49:56;;;;;;;8.32;1.45;;;20.40;72.60;;;;;;5024629;28;20583;-72
2023/06/02 10:52:23;;;;;;;8.02;1.95;;;20.50;73.80;;;;;;5045341;28;20078;-73
2023/06/02 10:55:07;;;;;;;9.27;2.10;;;20.40;75.30;;;;;;5010743;28;20095;-72
2023/06/02 10:57:52;;;;;;;6.18;2.20;;;20.50;77.80;;;;;;5040966;28;20033;-72
2023/06/02 11:00:36;;;;;;;11.55;2.33;;;20.60;80.00;;;;;;5047302;28;20055;-72
2023/06/02 11:03:04;;;;;;;4.75;1.80;;;20.60;80.30;;;;;;5048814;28;20520;-71
2023/06/02 11:05:31;;;;;;;9.95;2.38;;;20.80;81.70;;;;;;5025891;28;20053;-71
2023/06/02 11:08:17;;;;;;;7.78;2.10;;;20.80;82.90;;;;;;5021359;28;20418;-71
2023/06/02 11:10:57;;;;;;;5.88;2.00;;;21.00;83.90;;;;;;5043228;28;20045;-71
2023/06/02 11:13:28;;;;;;;8.57;2.35;;;20.90;83.40;;;;;;5041451;28;20166;-72
2023/06/02 11:15:54;;;;;;;8.05;2.08;;;20.90;83.00;;;;;;5038242;28;20052;-71
2023/06/02 11:18:23;;;;;;;8.15;2.42;;;20.90;83.80;;;;;;5039881;28;20053;-73
2023/06/02 11:20:50;;;;;;;6.88;1.85;;;20.70;84.80;;;;;;5032295;28;20129;-72
2023/06/02 11:23:20;;;;;;;8.25;2.38;;;20.70;87.30;;;;;;5025273;28;20136;-72
2023/06/02 11:25:47;;;;;;;7.57;1.88;;;20.80;87.70;;;;;;5024972;28;20118;-72
2023/06/02 11:28:22;;;;;;;9.18;1.88;;;21.00;90.20;;;;;;5045811;28;20045;-70
2023/06/02 11:31:04;;;;;;;4.95;1.95;;;21.10;89.50;;;;;;5021245;28;20134;-72
2023/06/02 11:33:36;;;;;;;7.85;2.40;;;21.10;87.30;;;;;;5033219;28;20124;-70
2023/06/02 11:36:03;;;;;;;5.65;2.10;;;21.10;87.50;;;;;;5048730;28;20106;-72
2023/06/02 11:38:33;;;;;;;9.82;2.50;;;20.90;87.40;;;;;;5035283;28;20052;-69
2023/06/02 11:41:12;;;;;;;7.47;2.28;;;21.00;87.20;;;;;;5012057;28;20044;-71
2023/06/02 11:43:44;;;;;;;4.63;1.95;;;21.00;88.50;;;;;;5036678;28;22085;-71
2023/06/02 11:46:12;;;;;;;8.25;2.10;;;21.20;88.50;;;;;;5024579;28;20049;-74
2023/06/02 11:48:40;;;;;;;9.40;2.20;;;21.10;86.80;;;;;;5036023;28;20488;-71
2023/06/02 11:51:10;;;;;;;9.38;2.30;;;21.20;88.10;;;;;;5036968;28;20142;-70
2023/06/02 11:53:38;;;;;;;7.15;2.53;;;21.10;86.30;;;;;;5022456;28;20068;-74
2023/06/02 11:56:07;;;;;;;9.35;2.55;;;21.00;87.10;;;;;;5026265;28;20454;-74
2023/06/02 11:58:44;;;;;;;14.00;2.53;;;21.10;88.00;;;;;;5032257;28;20032;-74
2023/06/02 12:01:15;;;;;;;9.80;2.53;;;20.90;88.10;;;;;;5031401;28;20049;-74
2023/06/02 12:03:59;;;;;;;10.88;3.25;;;20.70;90.00;;;;;;5045966;28;20059;-74
2023/06/02 12:06:25;;;;;;;7.13;2.40;;;20.70;90.50;;;;;;5048779;28;20441;-74
2023/06/02 12:08:51;;;;;;;8.02;2.90;;;20.60;90.80;;;;;;5012861;28;20116;-73
2023/06/02 12:11:18;;;;;;;5.78;2.58;;;20.50;91.00;;;;;;5018597;28;20048;-74
2023/06/02 12:14:03;;;;;;;8.00;2.83;;;20.50;91.10;;;;;;5011762;28;20065;-74
2023/06/02 12:16:29;;;;;;;9.20;2.75;;;20.60;91.10;;;;;;5046390;28;20102;-73
2023/06/02 12:19:11;;;;;;;10.63;3.00;;;20.90;92.00;;;;;;5006966;28;20475;-74
2023/06/02 12:21:39;;;;;;;12.02;2.70;;;21.10;92.00;;;;;;5031559;28;20037;-74
2023/06/02 12:24:05;;;;;;;9.38;3.13;;;21.00;91.90;;;;;;5025892;28;20046;-74
2023/06/02 12:26:42;;;;;;;9.80;3.00;;;21.00;91.90;;;;;;5029073;28;20048;-73
2023/06/02 12:29:09;;;;;;;10.43;2.95;;;21.10;91.90;;;;;;5047851;28;20051;-71
2023/06/02 12:31:35;;;;;;;7.35;2.80;;;21.20;91.80;;;;;;5058071;28;20072;-74
2023/06/02 12:34:00;;;;;;;8.13;3.00;;;21.30;91.80;;;;;;5020896;28;20038;-74
2023/06/02 12:36:27;;;;;;;4.82;2.40;;;21.50;92.00;;;;;;5043725;28;20048;-74
2023/06/02 12:38:52;;;;;;;11.15;3.08;;;21.70;92.30;;;;;;5024460;28;20044;-74
2023/06/02 12:41:18;;;;;;;13.05;3.65;;;21.70;91.30;;;;;;5021297;28;20396;-75
2023/06/02 12:43:44;;;;;;;10.82;3.40;;;21.70;91.30;;;;;;5045374;28;20042;-75
2023/06/02 12:46:14;;;;;;;8.25;3.20;;;21.60;91.40;;;;;;5013344;28;20117;-63